sensor_id;sensor_type;location;lat;lon;timestamp;temperature;humidity
12632;DHT22;6381;45.748;12.106;2023-04-29T00:01:23;13.80;99.70
12632;DHT22;6381;45.748;12.106;2023-04-29T00:03:53;13.70;99.40
12632;DHT22;6381;45.748;12.106;2023-04-29T00:06:23;14.00;99.90
12632;DHT22;6381;45.748;12.106;2023-04-29T00:08:52;14.50;98.80
12632;DHT22;6381;45.748;12.106;2023-04-29T00:11:23;14.30;98.30
12632;DHT22;6381;45.748;12.106;2023-04-29T00:13:52;14.00;98.40
12632;DHT22;6381;45.748;12.106;2023-04-29T00:16:21;13.80;98.70
12632;DHT22;6381;45.748;12.106;2023-04-29T00:18:51;13.90;99.30
12632;DHT22;6381;45.748;12.106;2023-04-29T00:21:21;13.80;98.90
12632;DHT22;6381;45.748;12.106;2023-04-29T00:23:50;13.60;99.40
12632;DHT22;6381;45.748;12.106;2023-04-29T00:26:23;13.70;99.10
12632;DHT22;6381;45.748;12.106;2023-04-29T00:28:53;13.80;99.50
12632;DHT22;6381;45.748;12.106;2023-04-29T00:31:22;13.80;99.00
12632;DHT22;6381;45.748;12.106;2023-04-29T00:33:52;13.70;99.70
12632;DHT22;6381;45.748;12.106;2023-04-29T00:36:21;13.70;99.90
12632;DHT22;6381;45.748;12.106;2023-04-29T00:38:50;13.70;99.90
12632;DHT22;6381;45.748;12.106;2023-04-29T00:41:20;13.80;99.60
12632;DHT22;6381;45.748;12.106;2023-04-29T00:43:51;13.70;99.00
12632;DHT22;6381;45.748;12.106;2023-04-29T00:46:20;13.80;99.00
12632;DHT22;6381;45.748;12.106;2023-04-29T00:48:49;13.70;99.40
12632;DHT22;6381;45.748;12.106;2023-04-29T00:51:19;13.60;98.50
12632;DHT22;6381;45.748;12.106;2023-04-29T00:53:48;13.60;99.00
12632;DHT22;6381;45.748;12.106;2023-04-29T00:56:19;13.60;99.10
12632;DHT22;6381;45.748;12.106;2023-04-29T00:58:50;13.50;99.00
12632;DHT22;6381;45.748;12.106;2023-04-29T01:01:20;13.60;99.60
12632;DHT22;6381;45.748;12.106;2023-04-29T01:03:50;13.70;99.60
12632;DHT22;6381;45.748;12.106;2023-04-29T01:06:25;13.50;99.90
12632;DHT22;6381;45.748;12.106;2023-04-29T01:09:09;13.70;99.70
12632;DHT22;6381;45.748;12.106;2023-04-29T01:11:52;13.80;99.70
12632;DHT22;6381;45.748;12.106;2023-04-29T01:14:25;14.00;99.60
12632;DHT22;6381;45.748;12.106;2023-04-29T01:16:59;14.10;99.20
12632;DHT22;6381;45.748;12.106;2023-04-29T01:19:38;14.20;98.10
12632;DHT22;6381;45.748;12.106;2023-04-29T01:22:08;14.20;98.00
12632;DHT22;6381;45.748;12.106;2023-04-29T01:24:39;14.10;97.90
12632;DHT22;6381;45.748;12.106;2023-04-29T01:27:16;14.00;98.30
12632;DHT22;6381;45.748;12.106;2023-04-29T01:29:58;13.80;99.20
12632;DHT22;6381;45.748;12.106;2023-04-29T01:32:34;13.50;99.90
12632;DHT22;6381;45.748;12.106;2023-04-29T01:35:13;13.50;99.90
12632;DHT22;6381;45.748;12.106;2023-04-29T01:37:54;13.20;99.90
12632;DHT22;6381;45.748;12.106;2023-04-29T01:40:33;13.10;99.90
12632;DHT22;6381;45.748;12.106;2023-04-29T01:43:10;13.10;99.90
12632;DHT22;6381;45.748;12.106;2023-04-29T01:45:44;13.20;99.90
12632;DHT22;6381;45.748;12.106;2023-04-29T01:48:15;13.60;99.90
12632;DHT22;6381;45.748;12.106;2023-04-29T01:50:45;13.60;99.90
12632;DHT22;6381;45.748;12.106;2023-04-29T01:53:16;13.60;99.90
12632;DHT22;6381;45.748;12.106;2023-04-29T01:55:47;13.70;99.90
12632;DHT22;6381;45.748;12.106;2023-04-29T01:58:20;13.50;99.90
12632;DHT22;6381;45.748;12.106;2023-04-29T02:01:24;13.60;99.90
12632;DHT22;6381;45.748;12.106;2023-04-29T02:03:53;13.70;99.90
12632;DHT22;6381;45.748;12.106;2023-04-29T02:06:24;13.50;99.90
12632;DHT22;6381;45.748;12.106;2023-04-29T02:08:57;13.50;99.90
12632;DHT22;6381;45.748;12.106;2023-04-29T02:11:28;13.60;99.90
12632;DHT22;6381;45.748;12.106;2023-04-29T02:13:57;13.60;99.90
12632;DHT22;6381;45.748;12.106;2023-04-29T02:16:27;13.70;99.90
12632;DHT22;6381;45.748;12.106;2023-04-29T02:19:00;13.80;99.90
12632;DHT22;6381;45.748;12.106;2023-04-29T02:21:30;13.60;99.90
12632;DHT22;6381;45.748;12.106;2023-04-29T02:24:00;13.90;99.90
12632;DHT22;6381;45.748;12.106;2023-04-29T02:26:31;13.80;99.90
12632;DHT22;6381;45.748;12.106;2023-04-29T02:29:00;13.60;99.90
12632;DHT22;6381;45.748;12.106;2023-04-29T02:31:30;13.90;99.90
12632;DHT22;6381;45.748;12.106;2023-04-29T02:33:59;13.60;99.90
12632;DHT22;6381;45.748;12.106;2023-04-29T02:36:29;13.50;99.90
12632;DHT22;6381;45.748;12.106;2023-04-29T02:38:58;13.60;99.90
12632;DHT22;6381;45.748;12.106;2023-04-29T02:41:27;13.60;99.90
12632;DHT22;6381;45.748;12.106;2023-04-29T02:43:58;13.70;99.90
12632;DHT22;6381;45.748;12.106;2023-04-29T02:46:27;13.80;99.90
12632;DHT22;6381;45.748;12.106;2023-04-29T02:48:57;13.80;99.90
12632;DHT22;6381;45.748;12.106;2023-04-29T02:51:26;13.90;99.90
12632;DHT22;6381;45.748;12.106;2023-04-29T02:53:56;13.90;99.80
12632;DHT22;6381;45.748;12.106;2023-04-29T02:56:25;13.70;99.80
12632;DHT22;6381;45.748;12.106;2023-04-29T02:58:54;13.80;99.50
12632;DHT22;6381;45.748;12.106;2023-04-29T03:01:25;13.80;99.90
12632;DHT22;6381;45.748;12.106;2023-04-29T03:03:54;13.90;99.80
12632;DHT22;6381;45.748;12.106;2023-04-29T03:06:24;13.80;99.90
12632;DHT22;6381;45.748;12.106;2023-04-29T03:08:54;13.90;99.20
12632;DHT22;6381;45.748;12.106;2023-04-29T03:11:24;14.00;99.50
12632;DHT22;6381;45.748;12.106;2023-04-29T03:13:54;13.80;99.00
12632;DHT22;6381;45.748;12.106;2023-04-29T03:16:25;13.90;99.60
12632;DHT22;6381;45.748;12.106;2023-04-29T03:18:55;13.80;98.90
12632;DHT22;6381;45.748;12.106;2023-04-29T03:21:25;13.90;99.00
12632;DHT22;6381;45.748;12.106;2023-04-29T03:23:55;13.90;98.80
12632;DHT22;6381;45.748;12.106;2023-04-29T03:26:30;13.90;99.10
12632;DHT22;6381;45.748;12.106;2023-04-29T03:29:00;13.80;98.80
12632;DHT22;6381;45.748;12.106;2023-04-29T03:31:30;13.90;98.90
12632;DHT22;6381;45.748;12.106;2023-04-29T03:34:00;14.00;98.50
12632;DHT22;6381;45.748;12.106;2023-04-29T03:36:33;13.90;97.70
12632;DHT22;6381;45.748;12.106;2023-04-29T03:39:06;13.80;98.10
12632;DHT22;6381;45.748;12.106;2023-04-29T03:41:35;13.90;98.50
12632;DHT22;6381;45.748;12.106;2023-04-29T03:44:05;13.90;98.10
12632;DHT22;6381;45.748;12.106;2023-04-29T03:46:36;13.90;97.60
12632;DHT22;6381;45.748;12.106;2023-04-29T03:49:05;13.80;98.10
12632;DHT22;6381;45.748;12.106;2023-04-29T03:51:34;13.80;98.20
12632;DHT22;6381;45.748;12.106;2023-04-29T03:54:10;13.80;97.60
12632;DHT22;6381;45.748;12.106;2023-04-29T03:56:40;13.90;98.10
12632;DHT22;6381;45.748;12.106;2023-04-29T03:59:11;13.90;97.10
12632;DHT22;6381;45.748;12.106;2023-04-29T04:01:43;13.80;97.10
12632;DHT22;6381;45.748;12.106;2023-04-29T04:04:12;13.60;97.20
12632;DHT22;6381;45.748;12.106;2023-04-29T04:06:45;13.50;97.70
12632;DHT22;6381;45.748;12.106;2023-04-29T04:09:21;13.50;98.40
12632;DHT22;6381;45.748;12.106;2023-04-29T04:11:51;13.40;99.10
12632;DHT22;6381;45.748;12.106;2023-04-29T04:14:20;13.50;99.90
12632;DHT22;6381;45.748;12.106;2023-04-29T04:16:51;12.90;99.90
12632;DHT22;6381;45.748;12.106;2023-04-29T04:19:21;13.50;99.90
12632;DHT22;6381;45.748;12.106;2023-04-29T04:21:50;13.40;99.90
12632;DHT22;6381;45.748;12.106;2023-04-29T04:24:20;13.20;99.90
12632;DHT22;6381;45.748;12.106;2023-04-29T04:26:49;13.30;99.90
12632;DHT22;6381;45.748;12.106;2023-04-29T04:29:28;13.20;99.90
12632;DHT22;6381;45.748;12.106;2023-04-29T04:32:03;13.20;99.90
12632;DHT22;6381;45.748;12.106;2023-04-29T04:34:33;13.30;99.90
12632;DHT22;6381;45.748;12.106;2023-04-29T04:37:04;13.30;99.90
12632;DHT22;6381;45.748;12.106;2023-04-29T04:39:34;13.60;99.90
12632;DHT22;6381;45.748;12.106;2023-04-29T04:42:03;13.60;99.90
12632;DHT22;6381;45.748;12.106;2023-04-29T04:44:33;15.20;99.90
12632;DHT22;6381;45.748;12.106;2023-04-29T04:47:08;13.80;99.90
12632;DHT22;6381;45.748;12.106;2023-04-29T04:49:57;13.80;99.90
12632;DHT22;6381;45.748;12.106;2023-04-29T04:52:26;13.80;99.90
12632;DHT22;6381;45.748;12.106;2023-04-29T04:55:03;13.90;99.90
12632;DHT22;6381;45.748;12.106;2023-04-29T04:57:35;13.70;99.90
12632;DHT22;6381;45.748;12.106;2023-04-29T05:00:05;13.50;99.90
12632;DHT22;6381;45.748;12.106;2023-04-29T05:02:36;13.70;99.90
12632;DHT22;6381;45.748;12.106;2023-04-29T05:05:07;13.90;99.90
12632;DHT22;6381;45.748;12.106;2023-04-29T05:07:38;13.90;99.90
12632;DHT22;6381;45.748;12.106;2023-04-29T05:10:10;13.90;99.90
12632;DHT22;6381;45.748;12.106;2023-04-29T05:12:50;14.10;99.90
12632;DHT22;6381;45.748;12.106;2023-04-29T05:15:20;14.20;99.90
12632;DHT22;6381;45.748;12.106;2023-04-29T05:17:52;14.30;99.30
12632;DHT22;6381;45.748;12.106;2023-04-29T05:20:24;14.20;99.10
12632;DHT22;6381;45.748;12.106;2023-04-29T05:22:54;14.10;99.00
12632;DHT22;6381;45.748;12.106;2023-04-29T05:25:25;14.20;99.20
12632;DHT22;6381;45.748;12.106;2023-04-29T05:27:56;14.30;99.20
12632;DHT22;6381;45.748;12.106;2023-04-29T05:30:29;14.20;99.00
12632;DHT22;6381;45.748;12.106;2023-04-29T05:33:00;14.30;98.90
12632;DHT22;6381;45.748;12.106;2023-04-29T05:35:30;14.40;99.10
12632;DHT22;6381;45.748;12.106;2023-04-29T05:37:59;14.40;99.80
12632;DHT22;6381;45.748;12.106;2023-04-29T05:40:37;14.30;99.80
12632;DHT22;6381;45.748;12.106;2023-04-29T05:43:25;14.20;99.90
12632;DHT22;6381;45.748;12.106;2023-04-29T05:45:56;14.40;99.90
12632;DHT22;6381;45.748;12.106;2023-04-29T05:48:27;14.60;99.90
12632;DHT22;6381;45.748;12.106;2023-04-29T05:50:57;14.70;99.50
12632;DHT22;6381;45.748;12.106;2023-04-29T05:53:26;14.50;98.40
12632;DHT22;6381;45.748;12.106;2023-04-29T05:55:56;14.40;98.10
12632;DHT22;6381;45.748;12.106;2023-04-29T05:58:25;14.50;98.90
12632;DHT22;6381;45.748;12.106;2023-04-29T06:00:55;14.60;98.10
12632;DHT22;6381;45.748;12.106;2023-04-29T06:03:28;14.50;98.00
12632;DHT22;6381;45.748;12.106;2023-04-29T06:06:17;14.60;98.40
12632;DHT22;6381;45.748;12.106;2023-04-29T06:09:00;14.80;99.10
12632;DHT22;6381;45.748;12.106;2023-04-29T06:11:34;14.90;98.20
12632;DHT22;6381;45.748;12.106;2023-04-29T06:14:04;14.70;98.90
12632;DHT22;6381;45.748;12.106;2023-04-29T06:16:34;14.70;98.70
12632;DHT22;6381;45.748;12.106;2023-04-29T06:19:05;14.70;98.30
12632;DHT22;6381;45.748;12.106;2023-04-29T06:21:34;14.80;98.20
12632;DHT22;6381;45.748;12.106;2023-04-29T06:24:04;14.70;96.80
12632;DHT22;6381;45.748;12.106;2023-04-29T06:26:34;14.60;97.10
12632;DHT22;6381;45.748;12.106;2023-04-29T06:29:04;14.60;96.30
12632;DHT22;6381;45.748;12.106;2023-04-29T06:31:35;14.90;97.70
12632;DHT22;6381;45.748;12.106;2023-04-29T06:34:06;14.90;98.20
12632;DHT22;6381;45.748;12.106;2023-04-29T06:36:46;15.10;97.70
12632;DHT22;6381;45.748;12.106;2023-04-29T06:39:40;15.10;97.90
12632;DHT22;6381;45.748;12.106;2023-04-29T06:42:28;15.10;98.30
12632;DHT22;6381;45.748;12.106;2023-04-29T06:45:21;15.20;97.90
12632;DHT22;6381;45.748;12.106;2023-04-29T06:48:19;15.20;96.40
12632;DHT22;6381;45.748;12.106;2023-04-29T06:50:51;15.40;97.00
12632;DHT22;6381;45.748;12.106;2023-04-29T06:53:22;15.50;96.70
12632;DHT22;6381;45.748;12.106;2023-04-29T06:55:52;15.70;96.80
12632;DHT22;6381;45.748;12.106;2023-04-29T06:58:21;15.70;97.00
12632;DHT22;6381;45.748;12.106;2023-04-29T07:00:51;15.90;95.30
12632;DHT22;6381;45.748;12.106;2023-04-29T07:03:21;15.60;96.40
12632;DHT22;6381;45.748;12.106;2023-04-29T07:05:52;15.30;97.30
12632;DHT22;6381;45.748;12.106;2023-04-29T07:08:23;15.60;95.90
12632;DHT22;6381;45.748;12.106;2023-04-29T07:10:56;15.70;96.10
12632;DHT22;6381;45.748;12.106;2023-04-29T07:13:25;15.90;97.40
12632;DHT22;6381;45.748;12.106;2023-04-29T07:15:55;16.00;98.70
12632;DHT22;6381;45.748;12.106;2023-04-29T07:18:24;16.10;99.00
12632;DHT22;6381;45.748;12.106;2023-04-29T07:21:00;16.30;98.60
12632;DHT22;6381;45.748;12.106;2023-04-29T07:23:29;16.40;98.80
12632;DHT22;6381;45.748;12.106;2023-04-29T07:26:02;16.30;99.00
12632;DHT22;6381;45.748;12.106;2023-04-29T07:28:36;16.10;98.70
12632;DHT22;6381;45.748;12.106;2023-04-29T07:31:06;16.20;98.60
12632;DHT22;6381;45.748;12.106;2023-04-29T07:33:35;16.50;99.00
12632;DHT22;6381;45.748;12.106;2023-04-29T07:36:06;16.40;98.20
12632;DHT22;6381;45.748;12.106;2023-04-29T07:38:36;16.50;97.20
12632;DHT22;6381;45.748;12.106;2023-04-29T07:41:05;16.50;96.20
12632;DHT22;6381;45.748;12.106;2023-04-29T07:43:34;16.50;96.40
12632;DHT22;6381;45.748;12.106;2023-04-29T07:46:05;16.70;96.50
12632;DHT22;6381;45.748;12.106;2023-04-29T07:48:36;16.60;95.50
12632;DHT22;6381;45.748;12.106;2023-04-29T07:51:11;16.70;95.70
12632;DHT22;6381;45.748;12.106;2023-04-29T07:53:42;16.80;93.80
12632;DHT22;6381;45.748;12.106;2023-04-29T07:56:11;16.90;93.70
12632;DHT22;6381;45.748;12.106;2023-04-29T07:58:40;16.90;93.70
12632;DHT22;6381;45.748;12.106;2023-04-29T08:01:10;16.90;90.20
12632;DHT22;6381;45.748;12.106;2023-04-29T08:03:40;16.70;92.10
12632;DHT22;6381;45.748;12.106;2023-04-29T08:06:12;16.90;93.20
12632;DHT22;6381;45.748;12.106;2023-04-29T08:08:42;17.00;91.80
12632;DHT22;6381;45.748;12.106;2023-04-29T08:11:15;17.00;91.60
12632;DHT22;6381;45.748;12.106;2023-04-29T08:13:45;16.90;92.20
12632;DHT22;6381;45.748;12.106;2023-04-29T08:16:16;17.00;91.80
12632;DHT22;6381;45.748;12.106;2023-04-29T08:18:46;16.90;91.10
12632;DHT22;6381;45.748;12.106;2023-04-29T08:21:16;17.00;90.90
12632;DHT22;6381;45.748;12.106;2023-04-29T08:23:46;17.00;90.60
12632;DHT22;6381;45.748;12.106;2023-04-29T08:26:15;17.10;91.20
12632;DHT22;6381;45.748;12.106;2023-04-29T08:28:44;17.20;90.60
12632;DHT22;6381;45.748;12.106;2023-04-29T08:31:17;17.30;89.40
12632;DHT22;6381;45.748;12.106;2023-04-29T08:33:47;17.30;90.80
12632;DHT22;6381;45.748;12.106;2023-04-29T08:36:18;17.20;91.40
12632;DHT22;6381;45.748;12.106;2023-04-29T08:38:47;17.20;91.10
12632;DHT22;6381;45.748;12.106;2023-04-29T08:41:19;17.00;89.00
12632;DHT22;6381;45.748;12.106;2023-04-29T08:43:48;17.30;88.20
12632;DHT22;6381;45.748;12.106;2023-04-29T08:46:18;17.40;85.00
12632;DHT22;6381;45.748;12.106;2023-04-29T08:48:49;17.40;85.60
12632;DHT22;6381;45.748;12.106;2023-04-29T08:51:21;17.60;87.70
12632;DHT22;6381;45.748;12.106;2023-04-29T08:53:50;17.70;84.90
12632;DHT22;6381;45.748;12.106;2023-04-29T08:56:20;17.80;82.50
12632;DHT22;6381;45.748;12.106;2023-04-29T08:58:50;18.00;87.20
12632;DHT22;6381;45.748;12.106;2023-04-29T09:01:22;17.90;84.50
12632;DHT22;6381;45.748;12.106;2023-04-29T09:04:00;17.90;83.40
12632;DHT22;6381;45.748;12.106;2023-04-29T09:06:34;18.00;80.30
12632;DHT22;6381;45.748;12.106;2023-04-29T09:09:03;18.50;81.10
12632;DHT22;6381;45.748;12.106;2023-04-29T09:11:33;18.40;75.10
12632;DHT22;6381;45.748;12.106;2023-04-29T09:14:03;18.40;76.50
12632;DHT22;6381;45.748;12.106;2023-04-29T09:16:33;18.50;75.40
12632;DHT22;6381;45.748;12.106;2023-04-29T09:19:04;18.30;75.40
12632;DHT22;6381;45.748;12.106;2023-04-29T09:21:35;18.20;76.10
12632;DHT22;6381;45.748;12.106;2023-04-29T09:24:05;18.40;79.20
12632;DHT22;6381;45.748;12.106;2023-04-29T09:26:40;18.50;80.10
12632;DHT22;6381;45.748;12.106;2023-04-29T09:29:11;18.50;73.70
12632;DHT22;6381;45.748;12.106;2023-04-29T09:31:43;18.60;72.70
12632;DHT22;6381;45.748;12.106;2023-04-29T09:34:13;18.60;72.60
12632;DHT22;6381;45.748;12.106;2023-04-29T09:36:46;18.40;74.60
12632;DHT22;6381;45.748;12.106;2023-04-29T09:39:17;18.70;75.30
12632;DHT22;6381;45.748;12.106;2023-04-29T09:41:58;18.80;68.10
12632;DHT22;6381;45.748;12.106;2023-04-29T09:44:30;19.00;72.80
12632;DHT22;6381;45.748;12.106;2023-04-29T09:47:01;19.30;68.50
12632;DHT22;6381;45.748;12.106;2023-04-29T09:49:32;19.60;68.50
12632;DHT22;6381;45.748;12.106;2023-04-29T09:52:06;19.90;69.80
12632;DHT22;6381;45.748;12.106;2023-04-29T09:54:37;19.40;64.30
12632;DHT22;6381;45.748;12.106;2023-04-29T09:57:08;19.00;65.00
12632;DHT22;6381;45.748;12.106;2023-04-29T09:59:39;19.30;62.50
12632;DHT22;6381;45.748;12.106;2023-04-29T10:02:14;19.60;64.60
12632;DHT22;6381;45.748;12.106;2023-04-29T10:04:46;19.90;64.30
12632;DHT22;6381;45.748;12.106;2023-04-29T10:07:19;20.00;55.90
12632;DHT22;6381;45.748;12.106;2023-04-29T10:09:48;19.90;51.10
12632;DHT22;6381;45.748;12.106;2023-04-29T10:12:18;20.20;56.10
12632;DHT22;6381;45.748;12.106;2023-04-29T10:14:52;20.20;53.70
12632;DHT22;6381;45.748;12.106;2023-04-29T10:17:35;20.50;60.80
12632;DHT22;6381;45.748;12.106;2023-04-29T10:20:06;20.40;59.90
12632;DHT22;6381;45.748;12.106;2023-04-29T10:22:44;20.20;56.60
12632;DHT22;6381;45.748;12.106;2023-04-29T10:25:14;20.80;59.80
12632;DHT22;6381;45.748;12.106;2023-04-29T10:27:45;20.50;56.50
12632;DHT22;6381;45.748;12.106;2023-04-29T10:30:16;20.70;60.30
12632;DHT22;6381;45.748;12.106;2023-04-29T10:32:47;20.50;53.80
12632;DHT22;6381;45.748;12.106;2023-04-29T10:35:20;20.20;52.30
12632;DHT22;6381;45.748;12.106;2023-04-29T10:37:55;20.90;60.10
12632;DHT22;6381;45.748;12.106;2023-04-29T10:40:30;20.60;58.60
12632;DHT22;6381;45.748;12.106;2023-04-29T10:43:03;20.80;58.30
12632;DHT22;6381;45.748;12.106;2023-04-29T10:45:33;21.10;58.30
12632;DHT22;6381;45.748;12.106;2023-04-29T10:48:15;21.20;58.20
12632;DHT22;6381;45.748;12.106;2023-04-29T10:51:02;21.40;57.10
12632;DHT22;6381;45.748;12.106;2023-04-29T10:53:34;21.60;53.50
12632;DHT22;6381;45.748;12.106;2023-04-29T10:56:08;21.70;51.00
12632;DHT22;6381;45.748;12.106;2023-04-29T10:58:42;21.80;48.20
12632;DHT22;6381;45.748;12.106;2023-04-29T11:01:13;21.30;50.60
12632;DHT22;6381;45.748;12.106;2023-04-29T11:03:50;21.60;49.90
12632;DHT22;6381;45.748;12.106;2023-04-29T11:06:37;21.70;53.30
12632;DHT22;6381;45.748;12.106;2023-04-29T11:09:11;22.20;54.80
12632;DHT22;6381;45.748;12.106;2023-04-29T11:11:42;21.70;50.90
12632;DHT22;6381;45.748;12.106;2023-04-29T11:14:13;21.90;53.50
12632;DHT22;6381;45.748;12.106;2023-04-29T11:16:51;22.00;51.40
12632;DHT22;6381;45.748;12.106;2023-04-29T11:19:24;21.80;51.60
12632;DHT22;6381;45.748;12.106;2023-04-29T11:22:08;21.80;51.40
12632;DHT22;6381;45.748;12.106;2023-04-29T11:24:50;21.50;50.50
12632;DHT22;6381;45.748;12.106;2023-04-29T11:27:21;21.20;49.20
12632;DHT22;6381;45.748;12.106;2023-04-29T11:29:52;20.80;50.10
12632;DHT22;6381;45.748;12.106;2023-04-29T11:32:27;21.20;50.00
12632;DHT22;6381;45.748;12.106;2023-04-29T11:35:07;21.70;54.50
12632;DHT22;6381;45.748;12.106;2023-04-29T11:37:37;21.80;50.30
12632;DHT22;6381;45.748;12.106;2023-04-29T11:40:10;22.20;50.20
12632;DHT22;6381;45.748;12.106;2023-04-29T11:42:41;22.20;52.60
12632;DHT22;6381;45.748;12.106;2023-04-29T11:45:12;22.10;48.00
12632;DHT22;6381;45.748;12.106;2023-04-29T11:47:43;22.30;48.80
12632;DHT22;6381;45.748;12.106;2023-04-29T11:50:15;22.70;50.40
12632;DHT22;6381;45.748;12.106;2023-04-29T11:52:48;23.10;50.90
12632;DHT22;6381;45.748;12.106;2023-04-29T11:55:20;23.60;51.90
12632;DHT22;6381;45.748;12.106;2023-04-29T11:57:49;23.90;46.60
12632;DHT22;6381;45.748;12.106;2023-04-29T12:00:20;23.40;47.70
12632;DHT22;6381;45.748;12.106;2023-04-29T12:02:49;23.00;48.20
12632;DHT22;6381;45.748;12.106;2023-04-29T12:05:19;23.30;48.10
12632;DHT22;6381;45.748;12.106;2023-04-29T12:07:49;23.20;47.00
12632;DHT22;6381;45.748;12.106;2023-04-29T12:10:20;22.90;44.80
12632;DHT22;6381;45.748;12.106;2023-04-29T12:12:51;22.40;45.40
12632;DHT22;6381;45.748;12.106;2023-04-29T12:15:20;22.60;46.50
12632;DHT22;6381;45.748;12.106;2023-04-29T12:17:51;23.40;46.30
12632;DHT22;6381;45.748;12.106;2023-04-29T12:20:21;24.00;44.20
12632;DHT22;6381;45.748;12.106;2023-04-29T12:22:50;24.00;43.50
12632;DHT22;6381;45.748;12.106;2023-04-29T12:25:24;24.50;48.00
12632;DHT22;6381;45.748;12.106;2023-04-29T12:27:58;24.00;43.30
12632;DHT22;6381;45.748;12.106;2023-04-29T12:30:28;24.30;42.30
12632;DHT22;6381;45.748;12.106;2023-04-29T12:32:57;24.40;45.70
12632;DHT22;6381;45.748;12.106;2023-04-29T12:35:27;24.50;46.40
12632;DHT22;6381;45.748;12.106;2023-04-29T12:37:57;24.50;42.20
12632;DHT22;6381;45.748;12.106;2023-04-29T12:40:28;24.50;46.00
12632;DHT22;6381;45.748;12.106;2023-04-29T12:43:05;24.20;41.10
12632;DHT22;6381;45.748;12.106;2023-04-29T12:45:34;24.50;41.90
12632;DHT22;6381;45.748;12.106;2023-04-29T12:48:04;24.60;42.00
12632;DHT22;6381;45.748;12.106;2023-04-29T12:50:48;24.60;38.70
12632;DHT22;6381;45.748;12.106;2023-04-29T12:53:18;24.30;41.10
12632;DHT22;6381;45.748;12.106;2023-04-29T12:55:49;25.00;44.30
12632;DHT22;6381;45.748;12.106;2023-04-29T12:58:20;25.30;43.70
12632;DHT22;6381;45.748;12.106;2023-04-29T13:00:49;25.50;44.60
12632;DHT22;6381;45.748;12.106;2023-04-29T13:03:18;25.50;44.10
12632;DHT22;6381;45.748;12.106;2023-04-29T13:05:49;26.20;40.70
12632;DHT22;6381;45.748;12.106;2023-04-29T13:08:20;26.20;38.40
12632;DHT22;6381;45.748;12.106;2023-04-29T13:10:51;25.70;38.30
12632;DHT22;6381;45.748;12.106;2023-04-29T13:13:20;25.80;41.40
12632;DHT22;6381;45.748;12.106;2023-04-29T13:15:49;26.00;43.00
12632;DHT22;6381;45.748;12.106;2023-04-29T13:18:18;26.00;38.60
12632;DHT22;6381;45.748;12.106;2023-04-29T13:20:48;25.40;37.90
12632;DHT22;6381;45.748;12.106;2023-04-29T13:23:19;25.60;39.00
12632;DHT22;6381;45.748;12.106;2023-04-29T13:25:51;25.20;38.10
12632;DHT22;6381;45.748;12.106;2023-04-29T13:28:20;24.40;39.40
12632;DHT22;6381;45.748;12.106;2023-04-29T13:30:50;23.70;39.30
12632;DHT22;6381;45.748;12.106;2023-04-29T13:33:19;23.70;44.30
12632;DHT22;6381;45.748;12.106;2023-04-29T13:35:48;24.40;43.30
12632;DHT22;6381;45.748;12.106;2023-04-29T13:38:17;24.80;43.00
12632;DHT22;6381;45.748;12.106;2023-04-29T13:40:47;24.70;43.90
12632;DHT22;6381;45.748;12.106;2023-04-29T13:43:17;24.30;41.80
12632;DHT22;6381;45.748;12.106;2023-04-29T13:46:03;24.60;45.60
12632;DHT22;6381;45.748;12.106;2023-04-29T13:48:34;25.20;41.70
12632;DHT22;6381;45.748;12.106;2023-04-29T13:51:06;26.50;41.20
12632;DHT22;6381;45.748;12.106;2023-04-29T13:53:38;26.90;38.60
12632;DHT22;6381;45.748;12.106;2023-04-29T13:56:28;26.60;36.60
12632;DHT22;6381;45.748;12.106;2023-04-29T13:59:19;26.70;36.60
12632;DHT22;6381;45.748;12.106;2023-04-29T14:01:51;26.50;36.40
12632;DHT22;6381;45.748;12.106;2023-04-29T14:04:40;25.90;37.20
12632;DHT22;6381;45.748;12.106;2023-04-29T14:07:10;26.40;41.80
12632;DHT22;6381;45.748;12.106;2023-04-29T14:09:39;26.40;42.50
12632;DHT22;6381;45.748;12.106;2023-04-29T14:12:08;26.60;39.60
12632;DHT22;6381;45.748;12.106;2023-04-29T14:14:39;24.80;39.50
12632;DHT22;6381;45.748;12.106;2023-04-29T14:17:08;24.00;39.60
12632;DHT22;6381;45.748;12.106;2023-04-29T14:19:38;23.60;41.50
12632;DHT22;6381;45.748;12.106;2023-04-29T14:22:13;24.60;42.80
12632;DHT22;6381;45.748;12.106;2023-04-29T14:24:51;25.30;40.00
12632;DHT22;6381;45.748;12.106;2023-04-29T14:27:21;25.00;43.40
12632;DHT22;6381;45.748;12.106;2023-04-29T14:32:22;24.00;38.00
12632;DHT22;6381;45.748;12.106;2023-04-29T14:34:51;23.70;38.10
12632;DHT22;6381;45.748;12.106;2023-04-29T14:37:21;23.90;38.20
12632;DHT22;6381;45.748;12.106;2023-04-29T14:39:50;24.10;38.10
12632;DHT22;6381;45.748;12.106;2023-04-29T14:42:19;24.10;39.00
12632;DHT22;6381;45.748;12.106;2023-04-29T14:44:48;24.20;38.20
12632;DHT22;6381;45.748;12.106;2023-04-29T14:47:19;25.10;36.60
12632;DHT22;6381;45.748;12.106;2023-04-29T14:49:49;24.80;36.20
12632;DHT22;6381;45.748;12.106;2023-04-29T14:52:18;24.40;37.70
12632;DHT22;6381;45.748;12.106;2023-04-29T14:54:47;23.80;37.60
12632;DHT22;6381;45.748;12.106;2023-04-29T14:57:16;23.30;39.00
12632;DHT22;6381;45.748;12.106;2023-04-29T14:59:45;22.60;39.20
12632;DHT22;6381;45.748;12.106;2023-04-29T15:02:16;22.80;40.30
12632;DHT22;6381;45.748;12.106;2023-04-29T15:04:47;22.70;40.50
12632;DHT22;6381;45.748;12.106;2023-04-29T15:07:17;22.50;40.70
12632;DHT22;6381;45.748;12.106;2023-04-29T15:09:46;22.60;42.70
12632;DHT22;6381;45.748;12.106;2023-04-29T15:12:17;22.60;41.20
12632;DHT22;6381;45.748;12.106;2023-04-29T15:14:47;22.80;41.70
12632;DHT22;6381;45.748;12.106;2023-04-29T15:17:16;22.80;42.10
12632;DHT22;6381;45.748;12.106;2023-04-29T15:19:48;22.80;41.60
12632;DHT22;6381;45.748;12.106;2023-04-29T15:22:17;23.00;41.00
12632;DHT22;6381;45.748;12.106;2023-04-29T15:24:47;22.90;42.00
12632;DHT22;6381;45.748;12.106;2023-04-29T15:27:19;22.80;42.10
12632;DHT22;6381;45.748;12.106;2023-04-29T15:29:49;22.70;42.80
12632;DHT22;6381;45.748;12.106;2023-04-29T15:32:21;22.70;43.20
12632;DHT22;6381;45.748;12.106;2023-04-29T15:34:52;22.60;41.80
12632;DHT22;6381;45.748;12.106;2023-04-29T15:37:23;22.30;42.70
12632;DHT22;6381;45.748;12.106;2023-04-29T15:39:53;22.50;42.50
12632;DHT22;6381;45.748;12.106;2023-04-29T15:42:22;21.90;42.40
12632;DHT22;6381;45.748;12.106;2023-04-29T15:44:52;21.90;42.80
12632;DHT22;6381;45.748;12.106;2023-04-29T15:47:21;21.60;41.90
12632;DHT22;6381;45.748;12.106;2023-04-29T15:49:52;21.80;43.00
12632;DHT22;6381;45.748;12.106;2023-04-29T15:52:24;22.00;43.30
12632;DHT22;6381;45.748;12.106;2023-04-29T15:54:53;21.60;43.30
12632;DHT22;6381;45.748;12.106;2023-04-29T15:57:22;21.50;43.70
12632;DHT22;6381;45.748;12.106;2023-04-29T15:59:52;21.70;45.20
12632;DHT22;6381;45.748;12.106;2023-04-29T16:02:22;21.60;44.90